Time;durP1;ratioP1;P1;durP2;ratioP2;P2;SDS_P1;SDS_P2;PMS_P1;PMS_P2;Temp;Humidity;BMP_temperature;BMP_pressure;BME280_temperature;BME280_humidity;BME280_pressure;Samples;Min_cycle;Max_cycle;Signal;HPM_P1;HPM_P2
2022/10/19 00:01:37;;;;;;;19.40;9.10;;;12.90;99.90;;;13.64;100.00;99235.09;5008798;28;20550;-88
2022/10/19 00:04:06;;;;;;;25.30;8.23;;;12.90;99.90;;;13.64;100.00;99240.34;5009155;28;20462;-87
2022/10/19 00:06:38;;;;;;;28.93;11.20;;;12.90;99.90;;;13.65;100.00;99231.44;5004611;28;20551;-89
2022/10/19 00:09:11;;;;;;;24.13;9.87;;;12.90;99.90;;;13.67;100.00;99232.09;5006034;28;20467;-87
2022/10/19 00:11:44;;;;;;;19.53;9.83;;;12.90;99.90;;;13.69;100.00;99219.59;5007174;28;20460;-88
2022/10/19 00:14:16;;;;;;;28.10;10.33;;;12.90;99.90;;;13.70;100.00;99229.13;5006845;28;20463;-88
2022/10/19 00:16:48;;;;;;;42.20;11.03;;;12.90;99.90;;;13.68;100.00;99228.44;5006415;28;20483;-87
2022/10/19 00:19:21;;;;;;;33.83;10.13;;;13.00;99.90;;;13.71;100.00;99228.13;5005914;28;20864;-87
2022/10/19 00:21:51;;;;;;;31.23;10.70;;;13.00;99.90;;;13.73;100.00;99234.00;5005986;28;20598;-88
2022/10/19 00:24:21;;;;;;;19.50;9.50;;;13.10;99.90;;;13.71;100.00;99220.25;5003797;28;20542;-88
2022/10/19 00:26:50;;;;;;;27.30;9.50;;;13.10;99.90;;;13.70;100.00;99218.59;5006339;28;20539;-88
2022/10/19 00:29:18;;;;;;;22.10;10.27;;;13.10;99.90;;;13.69;100.00;99215.16;5007579;28;20546;-88
2022/10/19 00:31:49;;;;;;;25.07;10.30;;;13.10;99.90;;;13.70;100.00;99215.97;5007108;28;21075;-87
2022/10/19 00:34:18;;;;;;;31.10;11.20;;;13.10;99.90;;;13.70;100.00;99213.34;5008006;28;21012;-87
2022/10/19 00:36:47;;;;;;;21.90;10.57;;;13.00;99.90;;;13.71;100.00;99213.16;5006866;28;20591;-88
2022/10/19 00:39:19;;;;;;;35.23;12.33;;;13.00;99.90;;;13.73;100.00;99213.81;5004941;28;20490;-87
2022/10/19 00:41:48;;;;;;;24.83;10.50;;;13.00;99.90;;;13.74;100.00;99206.75;5004445;28;20469;-87
2022/10/19 00:44:58;;;;;;;28.07;11.73;;;13.10;99.90;;;13.74;100.00;99202.28;5005702;28;20498;-88
2022/10/19 00:47:27;;;;;;;23.70;11.90;;;13.10;99.90;;;13.72;100.00;99208.72;5007621;28;20471;-88
2022/10/19 00:49:58;;;;;;;23.93;10.73;;;13.10;99.90;;;13.74;100.00;99209.38;5002980;28;20527;-86
2022/10/19 00:52:28;;;;;;;26.63;11.70;;;13.10;99.90;;;13.74;100.00;99201.47;5003925;28;20581;-88
2022/10/19 00:55:01;;;;;;;29.87;12.17;;;13.00;99.90;;;13.76;100.00;99204.72;5008557;28;21133;-87
2022/10/19 00:57:32;;;;;;;22.70;11.50;;;13.10;99.90;;;13.78;100.00;99205.38;5004490;28;20613;-89
2022/10/19 01:00:06;;;;;;;28.40;13.83;;;13.10;99.90;;;13.78;100.00;99203.56;5007508;28;20943;-89
2022/10/19 01:02:36;;;;;;;19.03;10.63;;;13.20;99.90;;;13.75;100.00;99203.09;5008014;28;20516;-87
2022/10/19 01:05:07;;;;;;;26.27;12.00;;;13.10;99.90;;;13.77;100.00;99204.56;5007246;28;20460;-87
2022/10/19 01:07:35;;;;;;;29.67;12.80;;;13.10;99.90;;;13.77;100.00;99199.31;5005824;28;21358;-87
2022/10/19 01:10:08;;;;;;;26.90;11.83;;;13.10;99.90;;;13.76;100.00;99199.47;5005688;28;21060;-86
2022/10/19 01:13:14;;;;;;;25.87;11.10;;;13.10;99.90;;;13.78;100.00;99203.56;5005394;28;20913;-87
2022/10/19 01:15:57;;;;;;;33.57;11.43;;;13.10;99.90;;;13.79;100.00;99199.13;5004928;28;20533;-88
2022/10/19 01:18:43;;;;;;;27.23;10.90;;;13.00;99.90;;;13.81;100.00;99203.22;5003954;28;20490;-87
2022/10/19 01:21:23;;;;;;;25.53;12.73;;;13.10;99.90;;;13.81;100.00;99197.97;5002578;28;20484;-88
2022/10/19 01:24:49;;;;;;;26.07;12.50;;;13.10;99.90;;;13.82;100.00;99196.13;5004852;28;20474;-88
2022/10/19 01:28:00;;;;;;;34.93;12.20;;;13.10;99.90;;;13.84;100.00;99199.41;5002226;28;20488;-87
2022/10/19 01:30:46;;;;;;;27.20;12.70;;;13.10;99.90;;;13.85;100.00;99190.53;4987494;28;21041;-87
2022/10/19 01:33:37;;;;;;;30.03;13.70;;;13.10;99.90;;;13.85;100.00;99199.22;5004087;28;21825;-87
2022/10/19 01:36:21;;;;;;;20.97;12.73;;;13.20;99.90;;;13.86;100.00;99186.88;5004336;28;20555;-87
2022/10/19 01:39:00;;;;;;;21.13;11.97;;;13.20;99.90;;;13.85;100.00;99198.41;5004362;28;20498;-86
2022/10/19 01:41:37;;;;;;;32.87;12.97;;;13.20;99.90;;;13.84;100.00;99187.09;5002106;28;20494;-87
2022/10/19 01:44:16;;;;;;;32.57;12.53;;;13.20;99.90;;;13.85;100.00;99190.53;5005151;28;20609;-87
2022/10/19 01:46:56;;;;;;;31.40;12.50;;;13.20;99.90;;;13.84;100.00;99192.34;5003981;28;21060;-87
2022/10/19 01:49:35;;;;;;;29.20;13.10;;;13.20;99.90;;;13.83;100.00;99190.69;5004324;28;20674;-86
2022/10/19 01:52:08;;;;;;;25.70;12.60;;;13.20;99.90;;;13.84;100.00;99187.09;5002916;28;20470;-86
2022/10/19 01:54:43;;;;;;;20.47;10.97;;;13.10;99.90;;;13.86;100.00;99189.50;5004739;28;20469;-87
2022/10/19 01:57:17;;;;;;;30.20;13.07;;;13.20;99.90;;;13.85;100.00;99182.66;5002280;28;20954;-86
2022/10/19 01:59:48;;;;;;;25.07;13.00;;;13.10;99.90;;;13.84;100.00;99181.81;5002792;28;21026;-86
2022/10/19 02:02:22;;;;;;;30.63;14.90;;;13.10;99.90;;;13.84;100.00;99178.38;5005828;28;20475;-87
2022/10/19 02:04:52;;;;;;;46.60;14.60;;;13.10;99.90;;;13.87;100.00;99176.19;5006289;28;20471;-88
2022/10/19 02:07:24;;;;;;;33.67;11.57;;;13.20;99.90;;;13.87;100.00;99159.59;5004035;28;20459;-86
2022/10/19 02:09:53;;;;;;;30.30;12.47;;;13.20;99.90;;;13.88;100.00;99161.25;5004387;28;20467;-86
2022/10/19 02:12:24;;;;;;;24.10;12.80;;;13.20;99.90;;;13.89;100.00;99157.59;5005870;28;20521;-88
2022/10/19 02:14:58;;;;;;;36.87;12.67;;;13.20;99.90;;;13.89;100.00;99153.16;5003046;28;20493;-88
2022/10/19 02:17:35;;;;;;;37.77;14.50;;;13.20;99.90;;;13.88;100.00;99159.41;5005484;28;20856;-88
2022/10/19 02:20:05;;;;;;;25.77;13.00;;;13.20;99.90;;;13.91;100.00;99160.88;5005035;28;20996;-87
2022/10/19 02:22:34;;;;;;;28.63;12.53;;;13.20;99.90;;;13.90;100.00;99151.34;5009438;28;20566;-87
2022/10/19 02:25:03;;;;;;;38.93;13.17;;;13.20;99.90;;;13.90;100.00;99153.97;5007493;28;20478;-87
2022/10/19 02:27:32;;;;;;;28.67;12.50;;;13.20;99.90;;;13.88;100.00;99148.88;5007518;28;20560;-86
2022/10/19 02:30:01;;;;;;;43.07;13.07;;;13.10;99.90;;;13.90;100.00;99148.72;5009784;28;20462;-87
2022/10/19 02:32:31;;;;;;;26.53;12.40;;;13.10;99.90;;;13.90;100.00;99146.09;5008384;28;21395;-86
2022/10/19 02:35:02;;;;;;;26.03;11.33;;;13.10;99.90;;;13.91;100.00;99145.94;5008937;28;20493;-86
2022/10/19 02:37:31;;;;;;;26.80;13.07;;;13.10;99.90;;;13.93;100.00;99143.09;5006096;28;20526;-86
2022/10/19 02:40:00;;;;;;;31.90;14.50;;;13.20;99.90;;;13.95;100.00;99146.38;5006562;28;20470;-86
2022/10/19 02:42:34;;;;;;;31.53;14.83;;;13.20;99.90;;;13.95;100.00;99141.13;5010198;28;20868;-86
2022/10/19 02:45:12;;;;;;;37.63;13.20;;;13.30;99.90;;;13.95;100.00;99130.59;5007906;28;20447;-88
2022/10/19 02:47:51;;;;;;;27.63;12.30;;;13.30;99.90;;;13.94;100.00;99134.22;5009190;28;20454;-87
2022/10/19 02:50:22;;;;;;;32.30;14.67;;;13.30;99.90;;;13.94;100.00;99142.09;5006605;28;20474;-88
2022/10/19 02:52:52;;;;;;;28.20;12.87;;;13.20;99.90;;;13.91;100.00;99137.22;5014673;28;20493;-88
2022/10/19 02:55:21;;;;;;;41.97;12.87;;;13.10;99.90;;;13.89;100.00;99128.66;5009379;28;20487;-89
2022/10/19 02:57:52;;;;;;;28.40;13.13;;;13.20;99.90;;;13.87;100.00;99128.03;5013601;28;20521;-88
2022/10/19 03:00:22;;;;;;;27.87;13.63;;;13.10;99.90;;;13.86;100.00;99121.16;5013449;28;20468;-88
2022/10/19 03:02:53;;;;;;;30.77;13.30;;;13.20;99.90;;;13.89;100.00;99126.03;5017166;28;20548;-89
2022/10/19 03:05:23;;;;;;;34.73;15.47;;;13.20;99.90;;;13.89;100.00;99131.31;5015726;28;20467;-89
2022/10/19 03:07:52;;;;;;;24.70;13.73;;;13.20;99.90;;;13.91;100.00;99121.44;5016763;28;20467;-89
2022/10/19 03:10:21;;;;;;;34.10;14.37;;;13.10;99.90;;;13.91;100.00;99130.16;5015637;28;20997;-81
2022/10/19 03:12:51;;;;;;;43.47;22.30;;;13.20;99.90;;;13.91;100.00;99132.78;5008079;28;20451;-89
2022/10/19 03:15:23;;;;;;;29.57;13.70;;;13.20;99.90;;;13.93;100.00;99127.31;5015938;28;20486;-88
2022/10/19 03:17:55;;;;;;;29.23;13.50;;;13.20;99.90;;;13.94;100.00;99128.97;5017429;28;20482;-87
2022/10/19 03:20:25;;;;;;;33.17;13.50;;;13.20;99.90;;;13.97;100.00;99139.09;5014331;28;20463;-88
2022/10/19 03:22:54;;;;;;;33.40;14.83;;;13.20;99.90;;;13.98;100.00;99132.88;5016572;28;20557;-80
2022/10/19 03:25:23;;;;;;;45.93;16.70;;;13.20;99.90;;;13.98;100.00;99136.31;5011190;28;20556;-89
2022/10/19 03:27:54;;;;;;;30.80;15.50;;;13.30;99.90;;;14.01;100.00;99129.88;5013619;28;20517;-91
2022/10/19 03:30:24;;;;;;;28.33;13.50;;;13.20;99.90;;;14.01;100.00;99135.13;5013017;28;20479;-80
2022/10/19 03:32:54;;;;;;;44.60;19.30;;;13.30;99.90;;;14.00;100.00;99130.84;5024432;28;20455;-88
2022/10/19 03:35:23;;;;;;;33.20;15.50;;;13.30;99.90;;;14.03;100.00;99127.84;5012630;28;20491;-89
2022/10/19 03:37:52;;;;;;;27.67;13.07;;;13.30;99.90;;;14.06;100.00;99135.38;5013157;28;20543;-89
2022/10/19 03:40:22;;;;;;;31.97;14.17;;;13.40;99.90;;;14.08;100.00;99141.28;5009121;28;20908;-88
2022/10/19 03:42:51;;;;;;;32.60;13.70;;;13.40;99.90;;;14.08;100.00;99130.78;5019655;28;20494;-90
2022/10/19 03:45:20;;;;;;;31.07;13.10;;;13.40;99.90;;;14.09;100.00;99135.84;5014865;28;20482;-88
2022/10/19 03:47:50;;;;;;;30.53;12.40;;;13.40;99.90;;;14.10;100.00;99144.53;5014777;28;20455;-79
2022/10/19 03:50:20;;;;;;;35.23;14.17;;;13.40;99.90;;;14.10;100.00;99140.09;5008313;28;20993;-89
2022/10/19 03:52:49;;;;;;;32.23;14.23;;;13.40;99.90;;;14.10;100.00;99147.19;5013922;28;20557;-90
2022/10/19 03:55:19;;;;;;;31.93;14.03;;;13.40;99.90;;;14.10;100.00;99150.63;5005764;28;21003;-80
2022/10/19 03:57:48;;;;;;;33.87;12.23;;;13.40;99.90;;;14.10;100.00;99150.63;5011768;28;20463;-89
2022/10/19 04:00:19;;;;;;;40.57;13.20;;;13.30;99.90;;;14.12;100.00;99147.81;5016769;28;20502;-90
2022/10/19 04:02:47;;;;;;;34.33;13.83;;;13.30;99.90;;;14.11;100.00;99149.63;5016692;28;20478;-91
2022/10/19 04:05:16;;;;;;;26.93;13.30;;;13.30;99.90;;;14.11;100.00;99140.94;5014093;28;20476;-88
2022/10/19 04:07:47;;;;;;;32.07;14.10;;;13.40;99.90;;;14.09;100.00;99140.31;5005535;28;21135;-82
2022/10/19 04:10:16;;;;;;;31.33;13.83;;;13.40;99.90;;;14.08;100.00;99136.03;5009547;28;20585;-91
2022/10/19 04:12:45;;;;;;;39.60;14.80;;;13.40;99.90;;;14.10;100.00;99129.59;5012335;28;20471;-88
2022/10/19 04:15:20;;;;;;;26.47;12.60;;;13.40;99.90;;;14.11;100.00;99133.84;5010270;28;20467;-80
2022/10/19 04:17:49;;;;;;;37.93;12.60;;;13.40;99.90;;;14.13;100.00;99134.47;5002829;28;20463;-81
2022/10/19 04:20:18;;;;;;;37.90;13.87;;;13.40;99.90;;;14.15;100.00;99128.22;5015545;28;20509;-90
2022/10/19 04:22:49;;;;;;;25.13;13.50;;;13.40;99.90;;;14.13;100.00;99134.47;5012611;28;20919;-88
2022/10/19 04:25:19;;;;;;;37.07;13.23;;;13.50;99.90;;;14.13;100.00;99123.94;5016119;28;21247;-89
2022/10/19 04:27:51;;;;;;;33.33;14.00;;;13.50;99.90;;;14.15;100.00;99125.59;5019822;28;20473;-88
2022/10/19 04:30:21;;;;;;;29.70;14.23;;;13.40;99.90;;;14.13;100.00;99117.88;5019920;28;20470;-88
2022/10/19 04:33:02;;;;;;;35.93;13.67;;;13.40;99.90;;;14.16;100.00;99125.38;5020581;28;20937;-87
2022/10/19 04:35:31;;;;;;;42.97;12.77;;;13.40;99.90;;;14.18;100.00;99127.84;5019611;28;20446;-91
2022/10/19 04:38:02;;;;;;;31.20;13.20;;;13.50;99.90;;;14.19;100.00;99121.59;5021854;28;20466;-88
2022/10/19 04:40:37;;;;;;;28.90;12.53;;;13.50;99.90;;;14.20;100.00;99123.22;5016607;28;20431;-89
2022/10/19 04:43:16;;;;;;;27.03;13.13;;;13.50;99.90;;;14.19;100.00;99122.41;5017753;28;20464;-89
2022/10/19 04:45:47;;;;;;;25.73;13.67;;;13.50;99.90;;;14.21;100.00;99120.41;5019790;28;20520;-88
2022/10/19 04:48:16;;;;;;;32.37;13.00;;;13.50;99.90;;;14.21;100.00;99107.25;5019623;28;20462;-88
2022/10/19 04:50:45;;;;;;;36.40;13.20;;;13.50;99.90;;;14.21;100.00;99116.97;5017821;28;20471;-88
2022/10/19 04:53:22;;;;;;;34.50;14.33;;;13.50;99.90;;;14.20;100.00;99108.25;5017973;28;20460;-90
2022/10/19 04:55:52;;;;;;;24.37;12.57;;;13.40;99.90;;;14.20;100.00;99113.50;5016675;28;20942;-88
2022/10/19 04:58:23;;;;;;;30.87;13.70;;;13.40;99.90;;;14.16;100.00;99114.88;5017674;28;20451;-88
2022/10/19 05:00:54;;;;;;;26.00;12.67;;;13.30;99.90;;;14.12;100.00;99116.25;5015329;28;20447;-90
2022/10/19 05:03:24;;;;;;;29.20;12.50;;;13.40;99.90;;;14.14;100.00;99122.13;5016422;28;20509;-89
2022/10/19 05:05:54;;;;;;;36.87;13.77;;;13.40;99.90;;;14.13;100.00;99117.88;5015731;28;20447;-89
2022/10/19 05:08:27;;;;;;;28.83;13.60;;;13.40;99.90;;;14.15;100.00;99115.06;5015982;28;20455;-89
2022/10/19 05:11:02;;;;;;;30.80;15.00;;;13.40;99.90;;;14.11;100.00;99115.44;5016791;28;20455;-88
2022/10/19 05:13:32;;;;;;;28.27;15.30;;;13.40;99.90;;;14.09;100.00;99114.78;5017933;28;20525;-89
2022/10/19 05:16:06;;;;;;;29.37;13.80;;;13.30;99.90;;;14.09;100.00;99111.38;5015114;28;20533;-87
2022/10/19 05:18:35;;;;;;;31.57;12.97;;;13.30;99.90;;;14.06;100.00;99117.78;5009028;28;20462;-88
2022/10/19 05:21:08;;;;;;;27.77;12.97;;;13.30;99.90;;;14.02;100.00;99108.63;5015322;28;20460;-88
2022/10/19 05:23:41;;;;;;;35.23;14.40;;;13.20;99.90;;;14.01;100.00;99114.09;5017651;28;20459;-90
2022/10/19 05:26:13;;;;;;;30.70;13.63;;;13.10;99.90;;;13.99;100.00;99116.06;5015383;28;20460;-89
2022/10/19 05:28:42;;;;;;;25.47;13.80;;;13.20;99.90;;;13.95;100.00;99106.94;5017402;28;20459;-89
2022/10/19 05:31:15;;;;;;;30.30;13.40;;;13.10;99.90;;;13.96;100.00;99109.38;5020423;28;20466;-87
2022/10/19 05:33:47;;;;;;;30.20;14.13;;;13.20;99.90;;;13.98;100.00;99098.69;5015603;28;20467;-89
2022/10/19 05:36:20;;;;;;;26.67;14.33;;;13.30;99.90;;;13.99;100.00;99100.28;5019627;28;20459;-90
2022/10/19 05:38:52;;;;;;;29.67;14.77;;;13.20;99.90;;;14.01;100.00;99093.03;5016142;28;20462;-87
2022/10/19 05:41:23;;;;;;;33.37;14.50;;;13.30;99.90;;;14.01;100.00;99095.69;5015532;28;20442;-90
2022/10/19 05:43:55;;;;;;;38.73;13.90;;;13.20;99.90;;;14.03;100.00;99093.66;5020154;28;20505;-87
2022/10/19 05:46:26;;;;;;;26.73;13.90;;;13.30;99.90;;;14.03;100.00;99085.78;5016904;28;20439;-89
2022/10/19 05:48:58;;;;;;;26.67;14.73;;;13.20;99.90;;;14.03;100.00;99085.78;5014914;28;21048;-88
2022/10/19 05:51:28;;;;;;;28.10;13.70;;;13.30;99.90;;;14.04;100.00;99087.41;5017589;28;20513;-88
2022/10/19 05:53:59;;;;;;;29.40;12.73;;;13.20;99.90;;;14.05;100.00;99099.56;5013374;28;20439;-88
2022/10/19 05:56:31;;;;;;;38.80;13.90;;;13.20;99.90;;;14.06;100.00;99093.28;5014739;28;20467;-88
2022/10/19 05:59:05;;;;;;;37.90;14.67;;;13.20;99.90;;;14.07;100.00;99087.03;5015511;28;21013;-89
2022/10/19 06:01:35;;;;;;;27.53;13.03;;;13.30;99.90;;;14.08;100.00;99088.69;5013727;28;20484;-87
2022/10/19 06:04:06;;;;;;;25.97;13.70;;;13.30;99.90;;;14.09;100.00;99077.97;5008643;28;20443;-87
2022/10/19 06:06:36;;;;;;;29.30;14.13;;;13.30;99.90;;;14.09;100.00;99079.81;5012034;28;20479;-88
2022/10/19 06:09:10;;;;;;;27.33;14.07;;;13.30;99.90;;;14.09;100.00;99077.16;5014381;28;20454;-87
2022/10/19 06:11:43;;;;;;;29.83;13.60;;;13.40;99.90;;;14.11;100.00;99080.41;5011615;28;20525;-86
2022/10/19 06:14:15;;;;;;;33.33;14.90;;;13.40;99.90;;;14.12;100.00;99076.81;5010632;28;20495;-87
2022/10/19 06:16:45;;;;;;;30.67;13.83;;;13.40;99.90;;;14.13;100.00;99081.03;5010692;28;20557;-87
2022/10/19 06:19:14;;;;;;;37.73;13.00;;;13.40;99.90;;;14.13;100.00;99080.25;5013094;28;20459;-87
2022/10/19 06:21:45;;;;;;;33.20;12.83;;;13.40;99.90;;;14.13;100.00;99081.88;5008374;28;20500;-87
2022/10/19 06:24:17;;;;;;;38.20;17.63;;;13.40;99.90;;;14.16;100.00;99079.88;5012333;28;20519;-87
2022/10/19 06:26:46;;;;;;;27.80;14.50;;;13.40;99.90;;;14.18;100.00;99081.31;5011048;28;20472;-87
2022/10/19 06:29:16;;;;;;;32.53;14.70;;;13.50;99.90;;;14.20;100.00;99086.38;5011533;28;20482;-87
2022/10/19 06:31:53;;;;;;;31.37;14.50;;;13.50;99.90;;;14.21;100.00;99082.75;5013284;28;20446;-87
2022/10/19 06:34:22;;;;;;;26.70;14.40;;;13.50;99.90;;;14.22;100.00;99098.38;5010560;28;20467;-86
2022/10/19 06:36:51;;;;;;;28.87;14.10;;;13.50;99.90;;;14.23;100.00;99099.97;5012935;28;20853;-86
2022/10/19 06:39:21;;;;;;;39.73;15.73;;;13.50;99.90;;;14.25;100.00;99110.34;5012762;28;21039;-86
2022/10/19 06:41:50;;;;;;;34.30;15.60;;;13.60;99.90;;;14.25;100.00;99112.97;5014997;28;20452;-86
2022/10/19 06:44:25;;;;;;;31.97;14.17;;;13.60;99.90;;;14.26;100.00;99104.09;5010370;28;20527;-87
2022/10/19 06:46:55;;;;;;;24.73;14.03;;;13.60;99.90;;;14.27;100.00;99101.25;5013057;28;20459;-87
2022/10/19 06:49:24;;;;;;;33.07;14.00;;;13.60;99.90;;;14.28;100.00;99105.53;5007777;28;20476;-88
2022/10/19 06:51:55;;;;;;;33.47;15.27;;;13.60;99.90;;;14.31;100.00;99099.06;5015127;28;20538;-87
2022/10/19 06:54:27;;;;;;;30.70;15.17;;;13.70;99.90;;;14.32;100.00;99103.34;5014694;28;20482;-87
2022/10/19 06:56:56;;;;;;;29.87;13.20;;;13.70;99.90;;;14.34;100.00;99096.09;5013534;28;20517;-86
2022/10/19 06:59:27;;;;;;;28.13;13.53;;;13.80;99.90;;;14.34;100.00;99101.34;5018148;28;20469;-88
2022/10/19 07:01:58;;;;;;;27.60;13.40;;;13.70;99.90;;;14.38;100.00;99098.19;5016256;28;20456;-89
2022/10/19 07:04:36;;;;;;;25.70;13.80;;;13.80;99.90;;;14.36;100.00;99094.09;5014171;28;20460;-88
2022/10/19 07:07:07;;;;;;;28.97;14.20;;;13.80;99.90;;;14.32;100.00;99096.25;5018295;28;20533;-86
2022/10/19 07:09:38;;;;;;;30.67;13.57;;;13.80;99.90;;;14.33;100.00;99097.09;5015420;28;20434;-86
2022/10/19 07:12:09;;;;;;;32.60;14.13;;;13.80;99.90;;;14.33;100.00;99097.09;5013333;28;20539;-86
2022/10/19 07:14:39;;;;;;;27.20;12.70;;;13.80;99.90;;;14.33;100.00;99103.16;5014408;28;20439;-86
2022/10/19 07:17:12;;;;;;;42.70;13.90;;;13.80;99.90;;;14.34;100.00;99102.19;5014103;28;20479;-88
2022/10/19 07:19:43;;;;;;;28.67;12.97;;;13.90;99.90;;;14.35;100.00;99106.44;5014918;28;20478;-88
2022/10/19 07:22:12;;;;;;;26.10;13.90;;;13.80;99.90;;;14.36;100.00;99102.81;5017968;28;20893;-87
2022/10/19 07:24:51;;;;;;;50.63;14.83;;;13.80;99.90;;;14.38;100.00;99108.69;5016880;28;20494;-88
2022/10/19 07:27:20;;;;;;;23.70;13.47;;;13.90;99.90;;;14.38;100.00;99100.00;5017399;28;20981;-87
2022/10/19 07:29:50;;;;;;;32.67;15.50;;;13.90;99.90;;;14.38;100.00;99100.81;5018951;28;20455;-87
2022/10/19 07:32:20;;;;;;;26.60;14.87;;;13.90;99.90;;;14.37;100.00;99104.44;5018705;28;20452;-88
2022/10/19 07:34:49;;;;;;;31.40;14.97;;;13.90;99.90;;;14.38;100.00;99103.44;5017601;28;20464;-87
2022/10/19 07:37:20;;;;;;;33.83;14.83;;;13.90;99.90;;;14.39;100.00;99105.09;5017895;28;20435;-87
2022/10/19 07:39:52;;;;;;;29.77;13.70;;;13.80;99.90;;;14.40;100.00;99109.34;5014767;28;20504;-88
2022/10/19 07:42:21;;;;;;;37.60;15.60;;;13.80;99.90;;;14.42;100.00;99106.53;5024286;28;20455;-87
2022/10/19 07:44:51;;;;;;;28.80;13.20;;;13.80;99.90;;;14.44;100.00;99112.41;5019645;28;20471;-86
2022/10/19 07:47:20;;;;;;;30.13;14.60;;;13.80;99.90;;;14.46;100.00;99105.97;5020763;28;20458;-87
2022/10/19 07:50:03;;;;;;;37.93;14.80;;;13.90;99.90;;;14.44;100.00;99110.59;5018607;28;20528;-87
2022/10/19 07:52:46;;;;;;;29.87;13.47;;;14.00;99.90;;;14.42;100.00;99109.97;5018623;28;20444;-86
2022/10/19 07:58:44;;;;;;;30.80;12.87;;;13.90;99.90;;;14.39;100.00;99112.16;5013438;28;20455;-86
2022/10/19 08:01:19;;;;;;;28.53;13.40;;;13.90;99.90;;;14.38;100.00;99103.44;5011803;28;20506;-87
2022/10/19 08:03:52;;;;;;;35.70;13.00;;;13.90;99.90;;;14.37;100.00;99101.81;5015597;28;20455;-87
2022/10/19 08:06:42;;;;;;;32.53;14.33;;;13.90;99.90;;;14.38;100.00;99095.56;5014027;28;20523;-87
2022/10/19 08:09:12;;;;;;;20.90;13.00;;;13.90;99.90;;;14.37;100.00;99101.81;5012436;28;21079;-86
2022/10/19 08:12:05;;;;;;;32.30;13.13;;;13.90;99.90;;;14.36;100.00;99099.38;5012905;28;20443;-87
2022/10/19 08:14:42;;;;;;;25.77;12.73;;;13.80;99.90;;;14.38;100.00;99100.81;5011686;28;20817;-87
2022/10/19 08:17:15;;;;;;;28.23;12.97;;;13.80;99.90;;;14.40;100.00;99104.09;5017316;28;20474;-86
2022/10/19 08:19:47;;;;;;;35.20;13.70;;;13.80;99.90;;;14.39;100.00;99097.19;5015687;28;20526;-86
2022/10/19 08:22:17;;;;;;;24.53;11.80;;;13.80;99.90;;;14.44;100.00;99107.13;5014475;28;20906;-87
2022/10/19 08:24:48;;;;;;;20.83;11.80;;;13.90;99.90;;;14.45;100.00;99116.69;5013492;28;20452;-86
2022/10/19 08:27:19;;;;;;;35.03;12.43;;;14.00;99.90;;;14.42;100.00;99109.97;5015968;28;20493;-87
2022/10/19 08:29:48;;;;;;;20.97;12.50;;;14.00;99.90;;;14.44;100.00;99115.03;5015670;28;20521;-83
2022/10/19 08:32:16;;;;;;;30.90;11.17;;;14.00;99.90;;;14.36;100.00;99105.47;5014321;28;20448;-86
2022/10/19 08:34:47;;;;;;;24.87;12.07;;;14.00;99.90;;;14.37;100.00;99104.44;5020562;28;20469;-88
2022/10/19 08:37:18;;;;;;;18.33;11.60;;;13.90;99.90;;;14.37;100.00;99101.81;5019608;28;20547;-88
2022/10/19 08:40:21;;;;;;;17.00;10.73;;;13.90;99.90;;;14.35;100.00;99116.16;5016019;28;20462;-86
2022/10/19 08:43:01;;;;;;;24.20;12.47;;;13.90;99.90;;;14.34;100.00;99104.81;5019604;28;20447;-87
2022/10/19 08:45:44;;;;;;;20.67;11.60;;;13.90;99.90;;;14.38;100.00;99103.44;5019560;28;20455;-86
2022/10/19 08:48:28;;;;;;;21.00;11.20;;;13.90;99.90;;;14.38;100.00;99100.00;5019422;28;20670;-88
2022/10/19 08:51:14;;;;;;;22.33;12.13;;;14.00;99.90;;;14.35;100.00;99095.91;5021231;28;20546;-87
2022/10/19 08:53:55;;;;;;;24.83;12.27;;;13.90;99.90;;;14.35;100.00;99084.56;5019924;28;20475;-86
2022/10/19 08:56:45;;;;;;;28.80;11.80;;;13.90;99.90;;;14.37;100.00;99080.75;5017188;28;20443;-86
2022/10/19 08:59:49;;;;;;;21.40;12.10;;;13.80;99.90;;;14.37;100.00;99072.84;5015141;28;20454;-87
2022/10/19 09:02:45;;;;;;;27.80;12.83;;;13.90;99.90;;;14.38;100.00;99069.22;5015261;28;20496;-88
2022/10/19 09:08:19;;;;;;;25.07;11.07;;;13.80;99.90;;;14.41;100.00;99074.13;5012167;28;20787;-88
2022/10/19 09:10:59;;;;;;;23.20;12.63;;;14.00;99.90;;;14.38;100.00;99076.31;5011574;28;20451;-87
2022/10/19 09:13:43;;;;;;;25.70;12.73;;;13.90;99.90;;;14.40;100.00;99067.25;5010707;28;20460;-87
2022/10/19 09:16:35;;;;;;;19.50;10.70;;;13.90;99.90;;;14.41;100.00;99071.50;5013564;28;20435;-86
2022/10/19 09:19:20;;;;;;;24.07;12.33;;;13.90;99.90;;;14.44;100.00;99070.28;5011843;28;20455;-87
2022/10/19 09:21:57;;;;;;;24.53;10.77;;;13.90;99.90;;;14.43;100.00;99056.34;5009992;28;20490;-86
2022/10/19 09:24:36;;;;;;;23.60;11.50;;;14.00;99.90;;;14.44;100.00;99063.22;5013431;28;20462;-88
2022/10/19 09:27:19;;;;;;;23.60;12.07;;;14.00;99.90;;;14.42;100.00;99064.41;5017087;28;20512;-87
2022/10/19 09:30:03;;;;;;;31.73;11.90;;;14.00;99.90;;;14.39;100.00;99060.34;5015715;28;20495;-86
2022/10/19 09:32:58;;;;;;;21.90;12.13;;;14.00;99.90;;;14.38;100.00;99058.69;5015272;28;20454;-86
2022/10/19 09:35:37;;;;;;;22.73;11.33;;;13.90;99.90;;;14.39;100.00;99054.25;5015433;28;20547;-87
2022/10/19 09:38:18;;;;;;;30.97;13.57;;;13.90;99.90;;;14.40;100.00;99048.81;5020128;28;20458;-86
2022/10/19 09:40:48;;;;;;;25.50;12.43;;;13.90;99.90;;;14.41;100.00;99058.31;5018514;28;20442;-88
2022/10/19 09:43:24;;;;;;;25.73;11.27;;;13.90;99.90;;;14.42;100.00;99053.88;5014148;28;20451;-87
2022/10/19 09:46:01;;;;;;;20.73;12.17;;;13.90;99.90;;;14.42;100.00;99049.44;5010818;28;20447;-87
2022/10/19 09:48:51;;;;;;;30.60;10.80;;;13.90;99.90;;;14.43;100.00;99066.88;5012809;28;20534;-87
2022/10/19 09:51:21;;;;;;;16.20;10.63;;;13.90;99.90;;;14.45;100.00;99059.59;5012639;28;21035;-88
2022/10/19 09:56:39;;;;;;;20.50;11.00;;;14.00;99.90;;;14.42;100.00;99054.72;5020978;28;20462;-88
2022/10/19 09:59:25;;;;;;;19.73;10.20;;;14.00;99.90;;;14.43;100.00;99061.59;5014463;28;21036;-87
2022/10/19 10:02:17;;;;;;;31.00;10.13;;;13.90;99.90;;;14.42;100.00;99062.59;5012276;28;20492;-88
2022/10/19 10:05:05;;;;;;;16.07;8.63;;;13.90;99.90;;;14.39;100.00;99062.97;5011188;28;20455;-86
2022/10/19 10:07:39;;;;;;;15.70;8.33;;;13.90;99.90;;;14.38;100.00;99063.16;5009923;28;20509;-87
2022/10/19 10:10:23;;;;;;;16.80;8.57;;;13.80;99.90;;;14.38;100.00;99065.78;5008412;28;20459;-86
2022/10/19 10:13:19;;;;;;;12.83;7.90;;;13.80;99.90;;;14.36;100.00;99068.63;4972693;28;20448;-87
2022/10/19 10:16:10;;;;;;;16.33;8.20;;;13.80;99.90;;;14.42;100.00;99064.41;4975871;28;20460;-86
2022/10/19 10:18:57;;;;;;;15.33;7.30;;;13.90;99.90;;;14.43;100.00;99055.53;4975708;28;20452;-87
2022/10/19 10:21:51;;;;;;;13.60;7.20;;;13.90;99.90;;;14.47;100.00;99059.41;4976221;28;20490;-87
2022/10/19 10:24:22;;;;;;;10.60;6.63;;;14.00;99.90;;;14.49;100.00;99054.78;4971256;28;20514;-87
2022/10/19 10:29:57;;;;;;;16.83;6.50;;;14.00;99.90;;;14.56;100.00;99060.91;4973065;28;20791;-87
2022/10/19 10:32:27;;;;;;;13.07;6.90;;;14.00;99.90;;;14.58;100.00;99057.09;5011187;28;20539;-87
2022/10/19 10:35:02;;;;;;;14.10;7.13;;;14.10;99.90;;;14.59;100.00;99056.09;5013738;28;20505;-86
2022/10/19 10:37:41;;;;;;;15.17;7.27;;;14.10;99.90;;;14.63;100.00;99060.97;5011078;28;20466;-86
2022/10/19 10:40:24;;;;;;;12.27;6.73;;;14.20;99.90;;;14.62;100.00;99054.91;5012645;28;21006;-87
2022/10/19 10:43:02;;;;;;;9.67;5.90;;;14.20;99.90;;;14.63;100.00;99046.00;5011732;28;20495;-87